Time;durP1;ratioP1;P1;durP2;ratioP2;P2;SDS_P1;SDS_P2;PMS_P1;PMS_P2;Temp;Humidity;BMP_temperature;BMP_pressure;BME280_temperature;BME280_humidity;BME280_pressure;Samples;Min_cycle;Max_cycle;Signal;HPM_P1;HPM_P2
2023/04/07 00:00:28;;;;;;;78.50;39.83;;;154.30;2252.80;;;;;;5046880;28;20016;-61
2023/04/07 00:02:54;;;;;;;123.55;64.95;;;154.50;2252.80;;;;;;5048749;28;20041;-61
2023/04/07 00:05:20;;;;;;;72.35;39.80;;;154.50;2252.80;;;;;;5048923;28;20036;-61
2023/04/07 00:07:46;;;;;;;81.88;47.28;;;179.20;2252.80;;;;;;5049334;28;20123;-61
2023/04/07 00:10:11;;;;;;;77.70;44.50;;;179.40;2252.80;;;;;;5049362;28;20395;-61
2023/04/07 00:12:37;;;;;;;66.82;40.22;;;179.40;2252.80;;;;;;5049202;28;20029;-61
2023/04/07 00:15:03;;;;;;;81.40;49.22;;;179.20;2252.80;;;;;;5048655;28;20041;-61
2023/04/07 00:17:29;;;;;;;81.13;50.00;;;179.40;2252.80;;;;;;5049067;28;20490;-61
2023/04/07 00:19:54;;;;;;;69.93;39.05;;;179.30;2252.80;;;;;;5048369;28;20032;-61
2023/04/07 00:22:21;;;;;;;36.05;22.80;;;179.40;2252.80;;;;;;5039327;28;20164;-61
2023/04/07 00:24:46;;;;;;;40.10;25.45;;;179.40;2252.80;;;;;;5041915;28;20034;-61
2023/04/07 00:27:12;;;;;;;76.38;49.00;;;179.50;2252.80;;;;;;5038536;28;20033;-62
2023/04/07 00:29:38;;;;;;;90.18;58.30;;;179.60;2252.80;;;;;;5048460;28;20017;-61
2023/04/07 00:32:03;;;;;;;88.68;53.85;;;179.60;2252.80;;;;;;5048696;28;20090;-62
2023/04/07 00:34:29;;;;;;;87.28;52.17;;;179.50;2252.80;;;;;;5048860;28;20531;-61
2023/04/07 00:36:55;;;;;;;81.68;53.83;;;179.60;2252.80;;;;;;5048719;28;20036;-61
2023/04/07 00:39:21;;;;;;;96.93;59.63;;;179.60;2252.80;;;;;;5048775;28;20025;-61
2023/04/07 00:41:47;;;;;;;73.95;43.10;;;179.50;2252.80;;;;;;5048987;28;20025;-61
2023/04/07 00:44:13;;;;;;;65.90;41.55;;;179.50;2252.80;;;;;;5048489;28;20032;-61
2023/04/07 00:46:40;;;;;;;62.08;41.55;;;179.50;2252.80;;;;;;5048999;28;20025;-61
2023/04/07 00:49:06;;;;;;;55.55;34.13;;;179.50;2252.80;;;;;;5048744;28;20067;-61
2023/04/07 00:51:32;;;;;;;36.85;28.20;;;179.50;2252.80;;;;;;5048504;28;20049;-62
2023/04/07 00:53:59;;;;;;;38.58;25.67;;;179.40;2252.80;;;;;;5048721;28;20431;-61
2023/04/07 00:56:26;;;;;;;41.83;24.58;;;179.50;2252.80;;;;;;5048600;28;20021;-61
2023/04/07 00:58:52;;;;;;;25.50;16.77;;;179.50;2252.80;;;;;;5048419;28;20476;-80
2023/04/07 01:01:34;;;;;;;29.10;15.82;;;179.40;2252.80;;;;;;5049517;28;20074;-60
2023/04/07 01:04:05;;;;;;;37.75;21.75;;;179.50;2252.80;;;;;;5052611;28;20494;-63
2023/04/07 01:06:37;;;;;;;24.73;16.00;;;179.60;2252.80;;;;;;5051790;28;20025;-61
2023/04/07 01:09:24;;;;;;;202.05;103.88;;;179.50;2252.80;;;;;;5052277;28;20045;-61
2023/04/07 01:12:21;;;;;;;204.18;103.63;;;179.50;2252.80;;;;;;5052259;28;20057;-61
2023/04/07 01:14:53;;;;;;;143.27;74.85;;;179.40;2252.80;;;;;;5051683;28;20437;-61
2023/04/07 01:17:22;;;;;;;119.78;64.00;;;179.40;2252.80;;;;;;5052543;28;20722;-60
2023/04/07 01:20:04;;;;;;;215.55;100.20;;;179.50;2252.80;;;;;;5052452;28;20107;-60
2023/04/07 01:22:53;;;;;;;342.48;154.82;;;179.40;2252.80;;;;;;5052545;28;20151;-60
2023/04/07 01:25:29;;;;;;;199.15;96.30;;;179.40;2252.80;;;;;;5052178;28;20628;-60
2023/04/07 01:28:08;;;;;;;202.68;100.40;;;179.40;2252.80;;;;;;5052098;28;20032;-61
2023/04/07 01:30:37;;;;;;;125.63;66.03;;;179.50;2252.80;;;;;;5051638;28;20430;-77
2023/04/07 01:33:05;;;;;;;104.63;53.08;;;179.40;2252.80;;;;;;5051761;28;20028;-61
2023/04/07 01:35:34;;;;;;;34.58;21.05;;;179.50;2252.80;;;;;;5052008;28;20440;-62
2023/04/07 01:38:02;;;;;;;32.03;20.52;;;179.60;2252.80;;;;;;5051655;28;20384;-61
2023/04/07 01:40:28;;;;;;;30.60;20.40;;;179.40;2252.80;;;;;;5051872;28;20119;-70
2023/04/07 01:42:56;;;;;;;28.50;18.13;;;179.40;2252.80;;;;;;5051482;28;20091;-61
2023/04/07 01:45:22;;;;;;;27.13;18.40;;;154.40;2252.80;;;;;;5051744;28;20025;-61
2023/04/07 01:47:49;;;;;;;29.92;20.42;;;154.40;2252.80;;;;;;5051878;28;20086;-63
2023/04/07 01:50:16;;;;;;;22.98;19.27;;;154.20;2252.80;;;;;;5051601;28;20028;-60
2023/04/07 01:52:42;;;;;;;24.70;18.02;;;154.20;2252.80;;;;;;5051407;28;20016;-61
2023/04/07 01:55:09;;;;;;;68.60;44.35;;;154.30;2252.80;;;;;;5051888;28;20028;-61
2023/04/07 01:57:34;;;;;;;35.50;24.65;;;154.30;2252.80;;;;;;5051218;28;20028;-62
2023/04/07 02:00:01;;;;;;;58.58;37.05;;;154.30;2252.80;;;;;;5051274;28;20029;-61
2023/04/07 02:02:27;;;;;;;31.77;22.80;;;179.20;2252.80;;;;;;5051458;28;20021;-59
2023/04/07 02:05:02;;;;;;;32.03;20.30;;;154.50;2252.80;;;;;;5050845;28;20029;-61
2023/04/07 02:07:54;;;;;;;18.85;14.48;;;154.40;2252.80;;;;;;5051673;28;20036;-63
2023/04/07 02:10:24;;;;;;;25.00;19.43;;;154.00;2252.80;;;;;;5050860;28;20033;-61
2023/04/07 02:12:51;;;;;;;23.17;16.40;;;154.00;2252.80;;;;;;5050932;28;20025;-61
2023/04/07 02:15:18;;;;;;;22.92;15.82;;;153.90;2252.80;;;;;;5051172;28;20471;-60
2023/04/07 02:17:50;;;;;;;19.92;14.57;;;154.00;2252.80;;;;;;5051087;28;20494;-61
2023/04/07 02:20:17;;;;;;;22.33;13.27;;;153.90;2252.80;;;;;;5050772;28;20025;-61
2023/04/07 02:22:46;;;;;;;16.67;12.90;;;153.80;2252.80;;;;;;5051005;28;20383;-61
2023/04/07 02:25:27;;;;;;;20.75;12.27;;;153.60;2252.80;;;;;;5025415;28;20112;-61
2023/04/07 02:27:54;;;;;;;17.33;12.35;;;128.90;2252.80;;;;;;5050464;28;20032;-75
2023/04/07 02:30:20;;;;;;;16.80;13.05;;;153.80;2252.80;;;;;;5050982;28;20064;-61
2023/04/07 02:32:46;;;;;;;18.90;13.05;;;154.00;2252.80;;;;;;5050553;28;20072;-61
2023/04/07 02:35:12;;;;;;;19.75;13.07;;;154.00;2252.80;;;;;;5050903;28;20029;-61
2023/04/07 02:37:38;;;;;;;21.42;13.88;;;153.70;2252.80;;;;;;5050425;28;20056;-61
2023/04/07 02:40:05;;;;;;;18.45;13.50;;;128.90;2252.80;;;;;;5050839;28;20044;-60
2023/04/07 02:42:30;;;;;;;18.98;14.32;;;128.90;2252.80;;;;;;5050680;28;20104;-61
2023/04/07 02:44:56;;;;;;;107.32;63.05;;;128.90;2252.80;;;;;;5050703;28;20396;-61
2023/04/07 02:47:22;;;;;;;42.42;28.02;;;153.80;2252.80;;;;;;5050287;28;20037;-61
2023/04/07 02:49:48;;;;;;;29.67;19.00;;;154.00;2252.80;;;;;;5050876;28;20025;-61
2023/04/07 02:52:13;;;;;;;22.77;16.80;;;154.20;2252.80;;;;;;5050616;28;20344;-60
2023/04/07 02:54:39;;;;;;;19.13;11.88;;;154.20;2252.80;;;;;;5050750;28;20498;-61
2023/04/07 02:57:05;;;;;;;18.15;11.98;;;154.20;2252.80;;;;;;5050374;28;20036;-68
2023/04/07 02:59:31;;;;;;;18.30;13.00;;;154.30;2252.80;;;;;;5050322;28;20025;-60
2023/04/07 03:01:56;;;;;;;16.45;11.65;;;154.20;2252.80;;;;;;5050177;28;20031;-60
2023/04/07 03:04:22;;;;;;;18.63;13.13;;;154.50;2252.80;;;;;;5050210;28;20124;-61
2023/04/07 03:06:48;;;;;;;17.85;12.60;;;154.50;2252.80;;;;;;5049783;28;20028;-60
2023/04/07 03:09:13;;;;;;;21.25;13.05;;;154.50;2252.80;;;;;;5050034;28;20025;-60
2023/04/07 03:11:40;;;;;;;18.48;13.57;;;154.50;2252.80;;;;;;5050527;28;20052;-61
2023/04/07 03:14:06;;;;;;;23.48;15.77;;;154.50;2252.80;;;;;;5050023;28;20401;-74
2023/04/07 03:16:32;;;;;;;18.67;15.15;;;154.50;2252.80;;;;;;5048444;28;20044;-61
2023/04/07 03:18:57;;;;;;;23.10;20.05;;;154.40;2252.80;;;;;;5050049;28;20024;-60
2023/04/07 03:21:23;;;;;;;20.92;15.02;;;154.50;2252.80;;;;;;5049247;28;20043;-60
2023/04/07 03:23:49;;;;;;;17.13;12.02;;;154.30;2252.80;;;;;;5049212;28;20028;-62
2023/04/07 03:26:15;;;;;;;22.48;13.32;;;154.10;2252.80;;;;;;5047928;28;20078;-61
2023/04/07 03:28:41;;;;;;;14.15;10.50;;;154.10;2252.80;;;;;;5038495;28;20115;-60
2023/04/07 03:31:07;;;;;;;16.50;9.35;;;154.20;2252.80;;;;;;5049968;28;20017;-61
2023/04/07 03:33:32;;;;;;;16.13;10.45;;;154.20;2252.80;;;;;;5049573;28;20375;-61
2023/04/07 03:35:58;;;;;;;15.65;10.98;;;154.30;2252.80;;;;;;5049454;28;20037;-60
2023/04/07 03:38:25;;;;;;;14.80;9.70;;;154.20;2252.80;;;;;;5049610;28;20048;-61
2023/04/07 03:40:50;;;;;;;14.10;10.73;;;154.30;2252.80;;;;;;5036124;28;20029;-61
2023/04/07 03:43:16;;;;;;;18.48;11.32;;;154.30;2252.80;;;;;;5049635;28;20044;-60
2023/04/07 03:45:42;;;;;;;14.57;11.00;;;154.40;2252.80;;;;;;5049055;28;20406;-60
2023/04/07 03:48:11;;;;;;;12.55;10.15;;;154.30;2252.80;;;;;;5049525;28;20079;-61
2023/04/07 03:50:40;;;;;;;15.27;9.63;;;154.40;2252.80;;;;;;5049672;28;20115;-61
2023/04/07 03:53:07;;;;;;;13.75;10.00;;;154.40;2252.80;;;;;;5049383;28;20025;-61
2023/04/07 03:55:33;;;;;;;14.05;10.25;;;154.50;2252.80;;;;;;5048839;28;20124;-61
2023/04/07 03:58:00;;;;;;;11.98;9.10;;;154.40;2252.80;;;;;;5049777;28;20024;-65
2023/04/07 04:00:26;;;;;;;16.10;9.57;;;154.50;2252.80;;;;;;5049265;28;20042;-61
2023/04/07 04:02:52;;;;;;;16.33;9.73;;;154.50;2252.80;;;;;;5049168;28;20060;-60
2023/04/07 04:05:18;;;;;;;12.65;9.65;;;179.30;2252.80;;;;;;5049010;28;20376;-61
2023/04/07 04:07:44;;;;;;;14.65;9.18;;;179.20;2252.80;;;;;;5048564;28;20029;-60
2023/04/07 04:10:10;;;;;;;19.60;12.07;;;179.30;2252.80;;;;;;5048794;28;20032;-62
2023/04/07 04:12:36;;;;;;;17.70;12.25;;;179.30;2252.80;;;;;;5049138;28;20025;-60
2023/04/07 04:15:01;;;;;;;18.10;12.18;;;179.30;2252.80;;;;;;5048775;28;20108;-60
2023/04/07 04:17:27;;;;;;;19.52;11.20;;;179.20;2252.80;;;;;;5049435;28;20029;-61
2023/04/07 04:19:54;;;;;;;18.80;11.85;;;179.20;2252.80;;;;;;5048660;28;20025;-61
2023/04/07 04:22:19;;;;;;;17.38;11.65;;;154.50;2252.80;;;;;;5049081;28;20104;-61
2023/04/07 04:24:45;;;;;;;15.82;10.43;;;154.50;2252.80;;;;;;5048540;28;20235;-66
2023/04/07 04:27:11;;;;;;;16.38;12.05;;;154.50;2252.80;;;;;;5048871;28;20147;-65
2023/04/07 04:29:36;;;;;;;18.77;12.18;;;179.30;2252.80;;;;;;5048822;28;20044;-65
2023/04/07 04:32:02;;;;;;;20.75;14.05;;;179.30;2252.80;;;;;;5048524;28;21190;-67
2023/04/07 04:34:28;;;;;;;23.50;15.38;;;179.40;2252.80;;;;;;5049058;28;20040;-67
2023/04/07 04:36:53;;;;;;;21.10;15.20;;;179.50;2252.80;;;;;;5052403;28;20013;-68
2023/04/07 04:39:19;;;;;;;21.35;12.93;;;179.50;2252.80;;;;;;5052702;28;20035;-67
2023/04/07 04:41:45;;;;;;;30.67;14.88;;;179.60;2252.80;;;;;;5039125;28;20033;-67
2023/04/07 04:44:11;;;;;;;19.38;12.93;;;179.60;2227.20;;;;;;5052949;28;20479;-67
2023/04/07 04:46:37;;;;;;;22.67;14.20;;;179.60;2252.80;;;;;;5052946;28;20078;-67
2023/04/07 04:49:02;;;;;;;24.15;17.88;;;179.60;2252.80;;;;;;5052658;28;20033;-67
2023/04/07 04:51:28;;;;;;;52.17;31.38;;;179.60;2252.80;;;;;;5040843;28;20030;-66
2023/04/07 04:53:54;;;;;;;56.90;37.28;;;179.60;2252.80;;;;;;5051139;28;20063;-66
2023/04/07 04:56:20;;;;;;;86.78;50.38;;;179.70;2252.80;;;;;;5052705;28;20020;-67
2023/04/07 04:58:46;;;;;;;63.90;37.72;;;179.80;2252.80;;;;;;5052311;28;20021;-67
2023/04/07 05:01:12;;;;;;;54.65;34.13;;;179.80;2252.80;;;;;;5052969;28;20049;-67
2023/04/07 05:03:38;;;;;;;50.25;30.73;;;179.80;2252.80;;;;;;5052098;28;20040;-67
2023/04/07 05:06:04;;;;;;;36.58;23.48;;;179.90;2252.80;;;;;;5052260;28;20029;-67
2023/04/07 05:08:30;;;;;;;18.80;13.77;;;179.90;2252.80;;;;;;5038918;28;20033;-66
2023/04/07 05:10:56;;;;;;;16.92;12.93;;;179.70;2252.80;;;;;;5051402;28;20375;-67
2023/04/07 05:13:22;;;;;;;17.60;12.80;;;179.80;2252.80;;;;;;5052540;28;20046;-67
2023/04/07 05:15:48;;;;;;;16.30;11.80;;;179.90;2252.80;;;;;;5052572;28;20072;-66
2023/04/07 05:18:14;;;;;;;15.32;12.20;;;179.90;2252.80;;;;;;5038764;28;20017;-67
2023/04/07 05:20:40;;;;;;;12.43;10.45;;;179.90;2252.80;;;;;;5052282;28;20519;-67
2023/04/07 05:23:06;;;;;;;14.57;10.40;;;180.00;2252.80;;;;;;5052038;28;20087;-66
2023/04/07 05:25:32;;;;;;;18.80;12.32;;;179.90;2252.80;;;;;;5052347;28;20021;-67
2023/04/07 05:27:58;;;;;;;28.27;19.30;;;180.00;2252.80;;;;;;5050330;28;20464;-66
2023/04/07 05:30:24;;;;;;;21.30;17.05;;;180.00;2227.20;;;;;;5052171;28;20041;-67
2023/04/07 05:32:52;;;;;;;17.45;12.05;;;180.00;2252.80;;;;;;5052313;28;20455;-67
2023/04/07 05:35:17;;;;;;;22.10;15.73;;;180.00;2252.80;;;;;;5051966;28;20025;-66
2023/04/07 05:37:43;;;;;;;16.13;13.48;;;179.90;2252.80;;;;;;5047598;28;20096;-66
2023/04/07 05:40:09;;;;;;;23.63;17.13;;;179.90;2252.80;;;;;;5042543;28;20029;-67
2023/04/07 05:42:35;;;;;;;18.92;14.90;;;179.90;2252.80;;;;;;5051577;28;20017;-66
2023/04/07 05:45:01;;;;;;;20.55;14.40;;;179.70;2252.80;;;;;;5052136;28;20540;-67
2023/04/07 05:47:26;;;;;;;23.30;16.08;;;179.60;2252.80;;;;;;5051368;28;20096;-67
2023/04/07 05:49:52;;;;;;;26.30;18.83;;;179.60;2252.80;;;;;;5040500;28;20061;-67
2023/04/07 05:52:18;;;;;;;23.85;16.73;;;179.60;2252.80;;;;;;5045180;28;20045;-67
2023/04/07 05:54:43;;;;;;;31.83;20.23;;;179.70;2252.80;;;;;;5042931;28;20021;-67
2023/04/07 05:57:09;;;;;;;124.05;65.70;;;179.60;2252.80;;;;;;5051217;28;20052;-67
2023/04/07 05:59:35;;;;;;;38.67;22.25;;;179.80;2252.80;;;;;;5051438;28;20033;-67
2023/04/07 06:02:02;;;;;;;32.63;21.15;;;179.70;2252.80;;;;;;5051395;28;20032;-67
2023/04/07 06:04:28;;;;;;;56.53;41.95;;;179.70;2252.80;;;;;;5051842;28;20033;-67
2023/04/07 06:06:54;;;;;;;32.05;22.83;;;179.90;2252.80;;;;;;5050977;28;20379;-67
2023/04/07 06:09:23;;;;;;;20.67;14.70;;;179.90;2252.80;;;;;;5051312;28;20471;-67
2023/04/07 06:11:49;;;;;;;32.00;27.63;;;179.90;2252.80;;;;;;5048357;28;20017;-67
2023/04/07 06:14:16;;;;;;;39.70;29.77;;;179.90;2252.80;;;;;;5049854;28;20028;-67
2023/04/07 06:16:42;;;;;;;23.50;17.90;;;179.90;2252.80;;;;;;5049212;28;20055;-67
2023/04/07 06:19:08;;;;;;;30.02;21.73;;;179.70;2252.80;;;;;;5039938;28;20060;-67
2023/04/07 06:21:33;;;;;;;39.20;25.45;;;179.70;2252.80;;;;;;5046438;28;20033;-66
2023/04/07 06:23:59;;;;;;;37.80;23.02;;;179.80;2252.80;;;;;;5049833;28;20041;-66
2023/04/07 06:26:26;;;;;;;34.85;21.95;;;179.90;2252.80;;;;;;5051139;28;20028;-67
2023/04/07 06:28:52;;;;;;;35.85;25.48;;;180.10;2252.80;;;;;;5051397;28;20488;-67
2023/04/07 06:31:18;;;;;;;27.38;20.02;;;179.90;2252.80;;;;;;5051214;28;20056;-67
2023/04/07 06:33:44;;;;;;;24.88;19.58;;;180.00;2252.80;;;;;;5050528;28;20029;-67
2023/04/07 06:36:11;;;;;;;26.50;18.67;;;179.90;2252.80;;;;;;5050637;28;20652;-67
2023/04/07 06:38:37;;;;;;;28.38;18.65;;;180.00;2252.80;;;;;;5050426;28;20051;-66
2023/04/07 06:41:03;;;;;;;24.67;18.30;;;179.80;2252.80;;;;;;5050454;28;20036;-67
2023/04/07 06:43:29;;;;;;;28.73;18.17;;;179.70;2252.80;;;;;;5050631;28;20033;-66
2023/04/07 06:45:55;;;;;;;30.35;21.52;;;179.60;2252.80;;;;;;5050388;28;20017;-65
2023/04/07 06:48:21;;;;;;;21.95;15.52;;;179.60;2252.80;;;;;;5050810;28;20037;-67
2023/04/07 06:50:50;;;;;;;25.88;19.63;;;179.60;2252.80;;;;;;5050449;28;20060;-67
2023/04/07 06:53:16;;;;;;;29.85;23.20;;;179.70;2252.80;;;;;;5050339;28;20078;-65
2023/04/07 06:55:42;;;;;;;24.90;18.90;;;179.80;2252.80;;;;;;5050408;28;20339;-67
2023/04/07 06:58:08;;;;;;;22.27;17.23;;;180.00;2252.80;;;;;;5050272;28;20067;-67
2023/04/07 07:00:34;;;;;;;23.17;16.80;;;179.90;2252.80;;;;;;5049118;28;20439;-68
2023/04/07 07:03:00;;;;;;;20.13;13.55;;;180.00;2252.80;;;;;;5050245;28;20048;-67
2023/04/07 07:05:26;;;;;;;22.48;16.33;;;180.00;2252.80;;;;;;5050358;28;20025;-66
2023/04/07 07:07:52;;;;;;;21.67;16.70;;;180.10;2252.80;;;;;;5050568;28;20039;-67
2023/04/07 07:10:19;;;;;;;25.10;15.48;;;204.80;2252.80;;;;;;5050194;28;20017;-67
2023/04/07 07:12:45;;;;;;;19.92;15.68;;;204.90;2252.80;;;;;;5049710;28;20094;-67
2023/04/07 07:15:10;;;;;;;20.33;14.30;;;205.00;2252.80;;;;;;5049963;28;20068;-67
2023/04/07 07:17:36;;;;;;;21.63;15.63;;;205.00;2252.80;;;;;;5050205;28;20021;-67
2023/04/07 07:20:02;;;;;;;21.20;16.45;;;205.20;2252.80;;;;;;5050006;28;20017;-67
2023/04/07 07:22:28;;;;;;;23.17;20.75;;;205.20;2252.80;;;;;;5050142;28;20035;-67
2023/04/07 07:24:53;;;;;;;21.70;17.95;;;205.40;2252.80;;;;;;5049698;28;20114;-67
2023/04/07 07:27:19;;;;;;;20.35;16.40;;;205.60;2252.80;;;;;;5050209;28;20043;-66
2023/04/07 07:29:45;;;;;;;29.38;19.83;;;205.60;2252.80;;;;;;5049466;28;20489;-67
2023/04/07 07:32:10;;;;;;;23.30;18.63;;;205.50;2252.80;;;;;;5049598;28;20040;-67
2023/04/07 07:34:36;;;;;;;17.88;15.05;;;205.40;2252.80;;;;;;5049600;28;20032;-67
2023/04/07 07:37:02;;;;;;;20.30;15.38;;;205.30;2252.80;;;;;;5049433;28;20395;-67
2023/04/07 07:39:28;;;;;;;23.02;17.33;;;205.20;2252.80;;;;;;5049736;28;20451;-66
2023/04/07 07:41:55;;;;;;;48.83;36.35;;;205.30;2252.80;;;;;;5049620;28;20040;-67
2023/04/07 07:44:21;;;;;;;43.83;30.10;;;205.40;2252.80;;;;;;5048829;28;20033;-67
2023/04/07 07:46:48;;;;;;;52.70;39.78;;;205.60;2252.80;;;;;;5049626;28;20024;-67
2023/04/07 07:49:14;;;;;;;47.83;31.40;;;205.70;2252.80;;;;;;5049451;28;20348;-67
2023/04/07 07:51:40;;;;;;;49.75;33.90;;;230.40;2252.80;;;;;;5049560;28;20036;-68
2023/04/07 07:54:05;;;;;;;28.48;19.10;;;230.40;2252.80;;;;;;5049542;28;20532;-67
2023/04/07 07:56:31;;;;;;;71.35;45.67;;;230.50;2252.80;;;;;;5049681;28;20111;-67
2023/04/07 07:58:57;;;;;;;23.25;18.60;;;230.90;2252.80;;;;;;5049330;28;20375;-67
2023/04/07 08:01:23;;;;;;;29.00;25.17;;;230.90;2252.80;;;;;;5049113;28;20052;-67
2023/04/07 08:03:49;;;;;;;36.28;27.25;;;231.00;2252.80;;;;;;5049180;28;20147;-67
2023/04/07 08:06:15;;;;;;;356.27;269.15;;;256.00;2252.80;;;;;;5048919;28;20036;-67
2023/04/07 08:08:41;;;;;;;26.98;20.17;;;256.10;2252.80;;;;;;5049055;28;20025;-68
2023/04/07 08:11:07;;;;;;;18.33;14.00;;;256.20;2252.80;;;;;;5049040;28;20021;-67
2023/04/07 08:13:33;;;;;;;18.00;14.93;;;256.00;2252.80;;;;;;5048651;28;20375;-68
2023/04/07 08:15:58;;;;;;;22.55;16.52;;;231.30;2252.80;;;;;;5049108;28;20021;-66
2023/04/07 08:18:24;;;;;;;23.38;19.58;;;256.00;2252.80;;;;;;5048789;28;20029;-66
2023/04/07 08:20:50;;;;;;;24.73;16.88;;;231.10;2252.80;;;;;;5049019;28;20036;-67
2023/04/07 08:23:16;;;;;;;46.20;40.85;;;231.20;2252.80;;;;;;5048502;28;20037;-67
2023/04/07 08:25:42;;;;;;;28.52;22.27;;;231.30;2252.80;;;;;;5049175;28;20029;-67
2023/04/07 08:28:07;;;;;;;19.10;14.63;;;231.00;2252.80;;;;;;5048904;28;20051;-66
2023/04/07 08:30:33;;;;;;;29.30;26.23;;;231.10;2252.80;;;;;;5048810;28;20356;-67
2023/04/07 08:32:59;;;;;;;31.63;23.00;;;231.20;2252.80;;;;;;5048748;28;20090;-66
2023/04/07 08:35:25;;;;;;;26.58;21.30;;;231.20;2252.80;;;;;;5048518;28;20083;-66
2023/04/07 08:37:50;;;;;;;38.72;26.23;;;256.20;2252.80;;;;;;5048198;28;20057;-66
2023/04/07 08:40:16;;;;;;;37.20;29.50;;;256.20;2252.80;;;;;;5048748;28;20025;-66
2023/04/07 08:42:47;;;;;;;25.25;15.70;;;256.50;2252.80;;;;;;5048265;28;20028;-67
2023/04/07 08:45:16;;;;;;;24.73;18.65;;;256.50;2252.80;;;;;;5048599;28;20040;-67
2023/04/07 08:47:42;;;;;;;21.52;14.40;;;256.50;2227.20;;;;;;5048881;28;21043;-67
2023/04/07 08:50:10;;;;;;;28.63;21.05;;;256.50;2227.20;;;;;;5048764;28;20025;-66
2023/04/07 08:52:49;;;;;;;43.83;28.98;;;256.60;2201.60;;;;;;5048525;28;20056;-67
2023/04/07 08:55:15;;;;;;;31.30;23.45;;;256.70;2227.20;;;;;;5048381;28;20543;-66
2023/04/07 08:57:41;;;;;;;31.80;25.40;;;256.80;2150.40;;;;;;5048600;28;20112;-68
2023/04/07 09:00:08;;;;;;;35.78;26.52;;;256.90;2176.00;;;;;;5048140;28;20159;-66
2023/04/07 09:02:37;;;;;;;27.55;19.23;;;256.90;2150.40;;;;;;5048344;28;20040;-67
2023/04/07 09:05:05;;;;;;;19.30;13.85;;;256.70;2099.20;;;;;;5048342;28;20040;-68
2023/04/07 09:07:35;;;;;;;24.67;16.05;;;256.70;2099.20;;;;;;5048787;28;20026;-66
2023/04/07 09:10:01;;;;;;;26.65;21.35;;;256.70;2048.00;;;;;;5048360;28;20364;-68
2023/04/07 09:12:29;;;;;;;19.70;15.63;;;281.60;2124.80;;;;;;5048563;28;20021;-67
2023/04/07 09:14:55;;;;;;;24.55;16.02;;;281.80;2022.40;;;;;;5047684;28;20467;-67
2023/04/07 09:17:21;;;;;;;23.85;17.75;;;282.10;2022.40;;;;;;5048921;28;21033;-67
2023/04/07 09:19:47;;;;;;;21.63;16.30;;;282.30;1996.80;;;;;;5048950;28;20104;-67
2023/04/07 09:22:13;;;;;;;24.48;16.58;;;307.30;1996.80;;;;;;5049203;28;20021;-67
2023/04/07 09:24:42;;;;;;;23.10;17.92;;;307.30;1996.80;;;;;;5052324;28;20037;-67
2023/04/07 09:27:14;;;;;;;19.13;13.93;;;307.50;1971.20;;;;;;5052080;28;20021;-67
2023/04/07 09:29:41;;;;;;;22.10;17.27;;;307.60;1971.20;;;;;;5051817;28;20017;-67
2023/04/07 09:32:07;;;;;;;24.60;19.55;;;307.80;1920.00;;;;;;5052125;28;20036;-66
2023/04/07 09:34:35;;;;;;;19.25;15.85;;;307.60;1920.00;;;;;;5051838;28;20079;-67
2023/04/07 09:37:02;;;;;;;18.00;13.55;;;307.70;1894.40;;;;;;5051423;28;20025;-67
2023/04/07 09:39:28;;;;;;;20.23;14.05;;;307.70;1868.80;;;;;;5052010;28;20348;-67
2023/04/07 09:41:54;;;;;;;14.63;11.63;;;307.50;1868.80;;;;;;5052110;28;20091;-67
2023/04/07 09:44:24;;;;;;;13.48;12.05;;;307.40;1868.80;;;;;;5038538;28;20364;-67
2023/04/07 09:46:55;;;;;;;30.30;22.40;;;282.50;1894.40;;;;;;5051970;28;20075;-67
2023/04/07 09:49:22;;;;;;;25.95;19.73;;;307.20;1996.80;;;;;;5051537;28;20041;-67
2023/04/07 09:52:07;;;;;;;21.20;15.73;;;282.50;1945.60;;;;;;5051493;28;20025;-67
2023/04/07 09:54:37;;;;;;;20.30;15.82;;;307.20;1971.20;;;;;;5028345;28;20025;-68
2023/04/07 09:57:05;;;;;;;22.45;12.75;;;282.20;1920.00;;;;;;5051692;28;20031;-67
2023/04/07 09:59:32;;;;;;;19.27;13.70;;;282.10;1920.00;;;;;;5051795;28;20028;-68
2023/04/07 10:02:01;;;;;;;17.40;13.00;;;282.10;1894.40;;;;;;5051453;28;20036;-67
2023/04/07 10:04:28;;;;;;;15.02;11.98;;;282.10;1894.40;;;;;;5051172;28;20059;-66
2023/04/07 10:06:55;;;;;;;16.15;12.93;;;282.20;1868.80;;;;;;5050958;28;20021;-67
2023/04/07 10:09:23;;;;;;;20.42;15.32;;;307.20;1843.20;;;;;;5051464;28;20036;-66
2023/04/07 10:11:50;;;;;;;18.70;14.95;;;307.40;1843.20;;;;;;5037800;28;20020;-67
2023/04/07 10:14:17;;;;;;;17.42;14.00;;;307.60;1843.20;;;;;;5051233;28;20032;-67
2023/04/07 10:16:45;;;;;;;19.05;14.05;;;307.60;1817.60;;;;;;5050888;28;20108;-67
2023/04/07 10:19:11;;;;;;;17.25;12.80;;;307.50;1792.00;;;;;;5051565;28;20044;-67
2023/04/07 10:21:41;;;;;;;19.83;13.68;;;307.30;1792.00;;;;;;5051060;28;20035;-68
2023/04/07 10:24:20;;;;;;;19.00;14.15;;;307.20;1817.60;;;;;;5050941;28;20483;-67
2023/04/07 10:26:58;;;;;;;23.65;16.58;;;282.50;1817.60;;;;;;5050959;28;20040;-68
2023/04/07 10:29:24;;;;;;;26.63;19.20;;;307.30;1843.20;;;;;;5050729;28;20036;-68
2023/04/07 10:31:51;;;;;;;18.60;14.55;;;307.40;1843.20;;;;;;5051286;28;20020;-67
2023/04/07 10:34:17;;;;;;;15.32;13.23;;;307.20;1843.20;;;;;;5050250;28;20036;-68
2023/04/07 10:37:10;;;;;;;14.73;11.60;;;282.30;1843.20;;;;;;5050593;28;20364;-68
2023/04/07 10:39:36;;;;;;;26.67;19.83;;;282.20;1843.20;;;;;;5050513;28;20029;-67
2023/04/07 10:42:02;;;;;;;21.15;16.67;;;282.30;1894.40;;;;;;5050977;28;20926;-67
2023/04/07 10:44:47;;;;;;;29.02;22.00;;;282.10;1894.40;;;;;;5050216;28;20025;-67
2023/04/07 10:47:13;;;;;;;28.38;19.88;;;281.90;1920.00;;;;;;5050446;28;20087;-67
2023/04/07 10:49:59;;;;;;;34.78;25.40;;;281.90;1920.00;;;;;;5050933;28;20102;-67
2023/04/07 10:52:25;;;;;;;25.88;19.55;;;281.90;1945.60;;;;;;5050110;28;20017;-66
2023/04/07 10:55:29;;;;;;;27.90;20.38;;;281.90;1945.60;;;;;;5050632;28;20043;-67
2023/04/07 10:58:14;;;;;;;21.33;15.75;;;281.80;1945.60;;;;;;5028353;28;20111;-67
2023/04/07 11:00:39;;;;;;;20.00;15.15;;;256.80;1945.60;;;;;;5050133;28;20020;-67
2023/04/07 11:03:14;;;;;;;26.88;17.75;;;256.50;1945.60;;;;;;5050242;28;20383;-67
2023/04/07 11:05:41;;;;;;;17.85;14.25;;;256.40;1945.60;;;;;;5049894;28;20061;-67
2023/04/07 11:08:07;;;;;;;17.50;12.77;;;256.20;1971.20;;;;;;5050107;28;20021;-67
2023/04/07 11:10:34;;;;;;;24.50;16.00;;;256.40;1971.20;;;;;;5049554;28;20021;-67
2023/04/07 11:13:02;;;;;;;26.38;17.33;;;256.40;1996.80;;;;;;5050343;28;20020;-67
2023/04/07 11:15:28;;;;;;;20.15;15.60;;;256.40;1996.80;;;;;;5050300;28;20044;-66
2023/04/07 11:18:19;;;;;;;20.33;16.55;;;256.30;1971.20;;;;;;5049807;28;20459;-67
2023/04/07 11:20:52;;;;;;;27.80;19.63;;;256.40;1971.20;;;;;;5049515;28;20035;-66
2023/04/07 11:23:19;;;;;;;31.80;22.40;;;256.20;1996.80;;;;;;5049492;28;20043;-66
2023/04/07 11:25:47;;;;;;;19.98;14.13;;;256.20;1996.80;;;;;;5050039;28;20419;-67
2023/04/07 11:28:14;;;;;;;17.02;14.70;;;231.30;1996.80;;;;;;5045260;28;20120;-67
2023/04/07 11:30:51;;;;;;;22.13;14.77;;;256.00;2022.40;;;;;;5041382;28;20028;-67
2023/04/07 11:33:26;;;;;;;17.40;14.02;;;256.00;2022.40;;;;;;5036157;28;20040;-68
2023/04/07 11:35:54;;;;;;;18.60;13.25;;;231.20;2048.00;;;;;;5049011;28;20041;-68
2023/04/07 11:38:21;;;;;;;17.48;13.85;;;231.20;2048.00;;;;;;5049378;28;20102;-68
2023/04/07 11:40:47;;;;;;;22.23;15.70;;;231.30;2048.00;;;;;;5049425;28;20017;-68
2023/04/07 11:43:20;;;;;;;23.77;17.02;;;231.30;2048.00;;;;;;5049540;28;20037;-67
2023/04/07 11:46:02;;;;;;;21.85;15.88;;;231.20;2048.00;;;;;;5049070;28;20028;-67
2023/04/07 11:48:29;;;;;;;19.77;15.07;;;231.10;2048.00;;;;;;5049775;28;20116;-70
2023/04/07 11:50:56;;;;;;;17.67;13.80;;;231.10;2048.00;;;;;;5044471;28;20079;-67
2023/04/07 11:53:33;;;;;;;13.85;12.27;;;231.10;2048.00;;;;;;5041064;28;20031;-67
2023/04/07 11:56:11;;;;;;;17.35;11.95;;;231.00;2048.00;;;;;;5049326;28;20027;-66
2023/04/07 11:58:37;;;;;;;19.40;13.23;;;230.90;2073.60;;;;;;5049189;28;20074;-69
2023/04/07 12:01:07;;;;;;;21.02;13.95;;;230.90;2073.60;;;;;;5049305;28;20387;-68